Time;durP1;ratioP1;P1;durP2;ratioP2;P2;SDS_P1;SDS_P2;PMS_P1;PMS_P2;Temp;Humidity;BMP_temperature;BMP_pressure;BME280_temperature;BME280_humidity;BME280_pressure;Samples;Min_cycle;Max_cycle;Signal;HPM_P1;HPM_P2
2022/08/26 00:00:17;;;;;;;;;;;;;;;20.61;58.94;96613.97;30001;983;1881;-66
2022/08/26 00:00:48;;;;;;;;;;;;;;;20.58;59.39;96606.44;30001;983;1881;-66
2022/08/26 00:01:20;;;;;;;;;;;;;;;20.59;59.41;96613.53;30001;983;1885;-56
2022/08/26 00:01:54;;;;;;;;;;;;;;;20.58;59.35;96606.44;30001;983;1859;-56
2022/08/26 00:02:24;;;;;;;;;;;;;;;20.57;59.31;96602.09;30001;982;1881;-66
2022/08/26 00:02:56;;;;;;;;;;;;;;;20.56;59.55;96611.50;30001;982;1881;-65
2022/08/26 00:03:27;;;;;;;;;;;;;;;20.56;59.42;96606.00;30001;982;1885;-65
2022/08/26 00:03:57;;;;;;;;;;;;;;;20.56;59.51;96606.00;30001;982;1881;-66
2022/08/26 00:04:30;;;;;;;;;;;;;;;20.54;59.56;96602.81;30001;982;1886;-65
2022/08/26 00:05:02;;;;;;;;;;;;;;;20.53;59.66;96603.16;30001;982;1881;-67
2022/08/26 00:05:33;;;;;;;;;;;;;;;20.52;59.87;96605.12;30001;982;1886;-66
2022/08/26 00:06:05;;;;;;;;;;;;;;;20.52;60.14;96610.63;30001;983;1859;-67
2022/08/26 00:06:37;;;;;;;;;;;;;;;20.49;59.98;96608.59;30001;983;1880;-67
2022/08/26 00:07:08;;;;;;;;;;;;;;;20.49;60.12;96607.81;30001;983;1881;-65
2022/08/26 00:07:41;;;;;;;;;;;;;;;20.48;59.96;96608.97;30001;983;1885;-65
2022/08/26 00:08:13;;;;;;;;;;;;;;;20.47;60.14;96602.66;30001;983;1881;-65
2022/08/26 00:08:45;;;;;;;;;;;;;;;20.46;60.21;96603.81;30001;983;1885;-64
2022/08/26 00:09:16;;;;;;;;;;;;;;;20.46;60.39;96601.06;30001;983;1881;-66
2022/08/26 00:09:46;;;;;;;;;;;;;;;20.46;60.38;96603.03;30001;982;1885;-64
2022/08/26 00:10:17;;;;;;;;;;;;;;;20.46;60.44;96606.56;30001;982;1859;-66
2022/08/26 00:10:48;;;;;;;;;;;;;;;20.45;60.49;96602.22;30001;982;1881;-64
2022/08/26 00:11:19;;;;;;;;;;;;;;;20.46;60.18;96605.78;30001;982;1881;-55
2022/08/26 00:11:51;;;;;;;;;;;;;;;20.45;60.62;96601.44;30001;982;1885;-65
2022/08/26 00:12:22;;;;;;;;;;;;;;;20.45;60.63;96599.47;30001;982;1881;-65
2022/08/26 00:12:53;;;;;;;;;;;;;;;20.45;60.41;96604.97;30001;982;1885;-65
2022/08/26 00:13:25;;;;;;;;;;;;;;;20.44;60.53;96592.38;30001;983;1859;-66
2022/08/26 00:13:56;;;;;;;;;;;;;;;20.45;60.63;96602.22;30001;983;1880;-64
2022/08/26 00:14:27;;;;;;;;;;;;;;;20.45;60.61;96604.97;30001;983;1881;-64
2022/08/26 00:15:01;;;;;;;;;;;;;;;20.45;60.84;96595.91;30001;983;1885;-63
2022/08/26 00:15:32;;;;;;;;;;;;;;;20.45;61.07;96598.66;30001;983;1881;-64
2022/08/26 00:16:04;;;;;;;;;;;;;;;20.45;60.80;96599.47;30001;962;1839;-55
2022/08/26 00:16:35;;;;;;;;;;;;;;;20.47;61.01;96597.16;30001;983;1881;-65
2022/08/26 00:17:06;;;;;;;;;;;;;;;20.48;60.85;96595.19;30001;983;1885;-64
2022/08/26 00:17:36;;;;;;;;;;;;;;;20.48;61.22;96598.75;30001;982;1881;-53
2022/08/26 00:18:07;;;;;;;;;;;;;;;20.48;61.06;96593.22;30001;982;1885;-63
2022/08/26 00:18:38;;;;;;;;;;;;;;;20.48;61.17;96593.22;30001;982;1859;-64
2022/08/26 00:19:09;;;;;;;;;;;;;;;20.47;60.98;96597.16;30001;982;1881;-64
2022/08/26 00:19:40;;;;;;;;;;;;;;;20.47;61.13;96599.91;30001;982;1881;-64
2022/08/26 00:20:13;;;;;;;;;;;;;;;20.45;61.14;96599.47;30001;982;1886;-64
2022/08/26 00:20:45;;;;;;;;;;;;;;;20.45;60.78;96596.72;30001;966;1778;-65
2022/08/26 00:21:16;;;;;;;;;;;;;;;20.46;61.44;96595.56;30001;983;1880;-66
2022/08/26 00:21:47;;;;;;;;;;;;;;;20.45;61.11;96593.16;30001;983;1881;-64
2022/08/26 00:22:18;;;;;;;;;;;;;;;20.44;61.06;96597.91;30001;983;1885;-64
2022/08/26 00:22:49;;;;;;;;;;;;;;;20.45;61.24;96599.47;30001;983;1881;-63
2022/08/26 00:23:20;;;;;;;;;;;;;;;20.44;61.29;96600.66;30001;983;1885;-65
2022/08/26 00:23:51;;;;;;;;;;;;;;;20.46;61.29;96595.56;30001;983;1881;-64
2022/08/26 00:24:22;;;;;;;;;;;;;;;20.46;61.30;96589.25;30001;983;1885;-66
2022/08/26 00:24:53;;;;;;;;;;;;;;;20.47;61.62;96591.63;30001;982;1859;-54
2022/08/26 00:25:24;;;;;;;;;;;;;;;20.47;61.76;96594.41;30001;982;1881;-62
2022/08/26 00:25:55;;;;;;;;;;;;;;;20.47;61.83;96597.16;30001;982;1881;-65
2022/08/26 00:26:26;;;;;;;;;;;;;;;20.46;61.81;96592.81;30001;982;1885;-64
2022/08/26 00:26:58;;;;;;;;;;;;;;;20.47;61.70;96597.16;30001;982;1859;-54
2022/08/26 00:27:32;;;;;;;;;;;;;;;20.46;61.68;96598.31;30001;983;1858;-64
2022/08/26 00:28:04;;;;;;;;;;;;;;;20.47;61.75;96585.31;30001;983;1880;-64
2022/08/26 00:28:38;;;;;;;;;;;;;;;20.48;62.07;96592.44;30001;983;1885;-64
2022/08/26 00:29:09;;;;;;;;;;;;;;;20.49;61.91;96600.34;30001;983;1881;-64
2022/08/26 00:29:40;;;;;;;;;;;;;;;20.48;61.88;96593.22;30001;983;1885;-65
2022/08/26 00:30:14;;;;;;;;;;;;;;;20.48;61.77;96593.22;30001;983;1881;-63
2022/08/26 00:30:48;;;;;;;;;;;;;;;20.46;62.19;96592.00;30001;983;1885;-63
2022/08/26 00:31:19;;;;;;;;;;;;;;;20.45;62.04;96593.97;30001;983;1881;-55
2022/08/26 00:31:50;;;;;;;;;;;;;;;20.44;62.61;96597.09;30001;983;1885;-55
2022/08/26 00:32:21;;;;;;;;;;;;;;;20.41;62.35;96590.38;30001;983;1859;-65
2022/08/26 00:32:53;;;;;;;;;;;;;;;20.41;62.57;96593.13;30001;982;1881;-65
2022/08/26 00:33:23;;;;;;;;;;;;;;;20.38;62.60;96591.09;30001;982;1881;-66
2022/08/26 00:33:55;;;;;;;;;;;;;;;20.38;62.13;96597.41;30001;982;1885;-64
2022/08/26 00:34:26;;;;;;;;;;;;;;;20.39;62.57;96595.44;30001;982;1881;-54
2022/08/26 00:34:57;;;;;;;;;;;;;;;20.37;62.45;96592.22;30001;983;1885;-55
2022/08/26 00:35:28;;;;;;;;;;;;;;;20.35;62.86;96589.81;30001;983;1880;-64
2022/08/26 00:36:01;;;;;;;;;;;;;;;20.32;62.63;96590.53;30001;983;1885;-64
2022/08/26 00:36:32;;;;;;;;;;;;;;;20.32;62.64;96596.06;30001;983;1880;-64
2022/08/26 00:37:03;;;;;;;;;;;;;;;20.30;62.62;96592.06;30001;983;1885;-66
2022/08/26 00:37:34;;;;;;;;;;;;;;;20.30;62.51;96589.31;30001;983;1794;-66
2022/08/26 00:38:05;;;;;;;;;;;;;;;20.29;62.57;96593.22;30001;983;1881;-65
2022/08/26 00:38:36;;;;;;;;;;;;;;;20.28;62.63;96595.19;30001;983;1881;-66
2022/08/26 00:39:08;;;;;;;;;;;;;;;20.27;63.19;96592.78;30001;983;1885;-66
2022/08/26 00:39:38;;;;;;;;;;;;;;;20.27;62.61;96595.53;30001;983;1881;-65
2022/08/26 00:40:11;;;;;;;;;;;;;;;20.25;62.73;96590.41;30001;982;1864;-64
2022/08/26 00:40:44;;;;;;;;;;;;;;;20.25;63.03;96595.09;30001;982;1877;-64
2022/08/26 00:41:17;;;;;;;;;;;;;;;20.24;62.77;96588.81;30001;982;1885;-65
2022/08/26 00:41:48;;;;;;;;;;;;;;;20.24;63.11;96593.50;30001;982;1881;-66
2022/08/26 00:42:19;;;;;;;;;;;;;;;20.26;62.97;96591.19;30001;982;1886;-63
2022/08/26 00:42:51;;;;;;;;;;;;;;;20.24;63.24;96588.81;30001;983;1858;-64
2022/08/26 00:43:23;;;;;;;;;;;;;;;20.23;62.92;96592.72;30001;983;1880;-63
2022/08/26 00:43:54;;;;;;;;;;;;;;;20.24;63.10;96590.75;30001;983;1880;-54
2022/08/26 00:44:26;;;;;;;;;;;;;;;20.22;62.88;96584.81;30001;983;1885;-65
2022/08/26 00:44:57;;;;;;;;;;;;;;;20.21;63.02;96591.47;30001;983;1881;-66
2022/08/26 00:45:33;;;;;;;;;;;;;;;20.18;62.87;96594.97;30001;983;1885;-64
2022/08/26 00:46:13;;;;;;;;;;;;;;;20.18;63.05;96589.44;30001;983;1881;-65
2022/08/26 00:46:47;;;;;;;;;;;;;;;20.18;63.15;96584.72;30001;983;1885;-63
2022/08/26 00:47:23;;;;;;;;;;;;;;;20.19;63.15;96591.03;30001;983;1881;-65
2022/08/26 00:47:58;;;;;;;;;;;;;;;20.18;63.09;96589.44;30001;982;1864;-65
2022/08/26 00:48:29;;;;;;;;;;;;;;;20.17;62.95;96593.34;30001;982;1877;-65
2022/08/26 00:49:06;;;;;;;;;;;;;;;20.17;62.96;96593.34;30001;982;1886;-65
2022/08/26 00:49:39;;;;;;;;;;;;;;;20.18;63.29;96589.44;30001;982;1881;-65
2022/08/26 00:50:12;;;;;;;;;;;;;;;20.18;63.33;96592.19;30001;983;1885;-64
2022/08/26 00:50:49;;;;;;;;;;;;;;;20.17;63.09;96588.66;30001;983;1880;-65
2022/08/26 00:51:22;;;;;;;;;;;;;;;20.15;63.09;96595.69;30001;983;1885;-66
2022/08/26 00:51:54;;;;;;;;;;;;;;;20.14;63.21;96588.56;30001;983;1859;-65
2022/08/26 00:52:25;;;;;;;;;;;;;;;20.14;63.28;96588.56;30001;983;1881;-67
2022/08/26 00:52:59;;;;;;;;;;;;;;;20.12;63.02;96586.19;30001;983;1881;-66
2022/08/26 00:53:31;;;;;;;;;;;;;;;20.13;63.12;96587.78;30001;983;1885;-66
2022/08/26 00:54:07;;;;;;;;;;;;;;;20.13;63.33;96598.00;30001;983;1881;-66
2022/08/26 00:54:44;;;;;;;;;;;;;;;20.13;63.48;96592.47;30001;983;1885;-65
2022/08/26 00:55:18;;;;;;;;;;;;;;;20.13;63.57;96603.50;30001;982;1859;-67
2022/08/26 00:56:09;;;;;;;;;;;;;;;20.13;63.41;96598.78;30001;982;1881;-56
2022/08/26 00:56:42;;;;;;;;;;;;;;;20.13;63.33;96600.75;30001;982;1877;-67
2022/08/26 00:57:17;;;;;;;;;;;;;;;20.13;63.20;96609.00;30001;982;1886;-66
2022/08/26 00:57:49;;;;;;;;;;;;;;;20.12;63.20;96599.94;30001;983;1880;-67
2022/08/26 00:58:23;;;;;;;;;;;;;;;20.11;63.34;96600.31;30001;962;1906;-67
2022/08/26 00:58:56;;;;;;;;;;;;;;;20.10;63.48;96598.75;30001;983;1881;-65
2022/08/26 00:59:28;;;;;;;;;;;;;;;20.08;63.46;96608.16;30001;983;1885;-56
2022/08/26 01:00:05;;;;;;;;;;;;;;;20.06;64.27;96604.16;30001;983;1880;-68
2022/08/26 01:00:36;;;;;;;;;;;;;;;20.03;64.51;96605.69;30001;983;1863;-66
2022/08/26 01:01:08;;;;;;;;;;;;;;;20.00;64.09;96606.41;30001;983;1876;-66
2022/08/26 01:01:40;;;;;;;;;;;;;;;19.98;64.12;96607.94;30001;983;1885;-56
2022/08/26 01:02:11;;;;;;;;;;;;;;;19.98;64.41;96613.44;30001;982;1881;-67
2022/08/26 01:02:45;;;;;;;;;;;;;;;19.95;65.13;96603.13;30001;982;1885;-66
2022/08/26 01:03:16;;;;;;;;;;;;;;;19.92;65.70;96593.63;30001;982;1859;-65
2022/08/26 01:03:47;;;;;;;;;;;;;;;19.90;65.99;96601.47;30001;982;1881;-65
2022/08/26 01:04:20;;;;;;;;;;;;;;;19.89;65.01;96610.88;30001;982;1881;-66
2022/08/26 01:04:52;;;;;;;;;;;;;;;19.88;65.05;96602.97;30001;982;1864;-65
2022/08/26 01:05:23;;;;;;;;;;;;;;;19.85;65.71;96607.25;30001;983;1876;-67
2022/08/26 01:05:55;;;;;;;;;;;;;;;19.83;65.79;96604.06;30001;983;1885;-67
2022/08/26 01:06:27;;;;;;;;;;;;;;;19.81;65.76;96603.59;30001;983;1881;-65
2022/08/26 01:06:59;;;;;;;;;;;;;;;19.80;65.74;96607.53;30001;983;1885;-56
2022/08/26 01:07:30;;;;;;;;;;;;;;;19.79;65.16;96605.91;30001;983;1881;-66
2022/08/26 01:08:01;;;;;;;;;;;;;;;19.78;65.53;96598.03;30001;983;1885;-67
2022/08/26 01:08:32;;;;;;;;;;;;;;;19.78;65.30;96604.31;30001;983;1881;-67
2022/08/26 01:09:03;;;;;;;;;;;;;;;19.77;66.10;96608.25;30001;983;1885;-66
2022/08/26 01:09:34;;;;;;;;;;;;;;;19.74;65.83;96598.78;30001;982;1859;-66
2022/08/26 01:10:08;;;;;;;;;;;;;;;19.74;65.59;96600.72;30001;982;1881;-66
2022/08/26 01:10:42;;;;;;;;;;;;;;;19.73;65.45;96597.16;30001;982;1881;-65
2022/08/26 01:11:15;;;;;;;;;;;;;;;19.72;65.91;96600.28;30001;972;1903;-67
2022/08/26 01:11:48;;;;;;;;;;;;;;;19.70;66.31;96602.59;30001;982;1881;-65
2022/08/26 01:12:19;;;;;;;;;;;;;;;19.69;65.96;96595.50;30001;982;1886;-67
2022/08/26 01:13:01;;;;;;;;;;;;;;;19.66;66.85;96604.47;30001;983;1880;-55
2022/08/26 01:13:38;;;;;;;;;;;;;;;19.63;67.12;96602.44;30001;983;1885;-67
2022/08/26 01:14:11;;;;;;;;;;;;;;;19.60;67.08;96600.38;30001;983;1881;-67
2022/08/26 01:14:42;;;;;;;;;;;;;;;19.57;67.21;96604.66;30001;983;1863;-55
2022/08/26 01:15:16;;;;;;;;;;;;;;;19.55;67.62;96597.91;30001;983;1876;-65
2022/08/26 01:15:52;;;;;;;;;;;;;;;19.53;67.59;96602.97;30001;983;1863;-57
2022/08/26 01:16:24;;;;;;;;;;;;;;;19.52;67.04;96604.13;30001;983;1876;-67
2022/08/26 01:16:55;;;;;;;;;;;;;;;19.49;67.12;96597.34;30001;982;1885;-67
2022/08/26 01:17:29;;;;;;;;;;;;;;;19.49;67.37;96596.53;30001;982;1881;-66
2022/08/26 01:18:02;;;;;;;;;;;;;;;19.46;67.50;96598.06;30001;982;1885;-66
2022/08/26 01:18:34;;;;;;;;;;;;;;;19.45;67.54;96604.72;30001;982;1881;-55
2022/08/26 01:19:10;;;;;;;;;;;;;;;19.43;67.79;96602.31;30001;982;1815;-67
2022/08/26 01:19:43;;;;;;;;;;;;;;;19.41;67.20;96599.13;30001;982;1881;-67
2022/08/26 01:20:37;;;;;;;;;;;;;;;19.39;67.28;96604.22;30001;983;1885;-67
2022/08/26 01:21:20;;;;;;;;;;;;;;;19.40;67.48;96603.03;30001;983;1854;-55
2022/08/26 01:22:17;;;;;;;;;;;;;;;19.41;67.42;96603.81;30001;983;1880;-66
2022/08/26 01:23:08;;;;;;;;;;;;;;;19.41;66.90;96601.06;30001;983;1876;-57
2022/08/26 01:23:41;;;;;;;;;;;;;;;19.42;67.07;96608.97;30001;983;1881;-67
2022/08/26 01:24:12;;;;;;;;;;;;;;;19.42;66.81;96608.97;30001;983;1881;-68
2022/08/26 01:24:43;;;;;;;;;;;;;;;19.41;66.84;96601.87;30001;982;1885;-67
2022/08/26 01:25:14;;;;;;;;;;;;;;;19.42;66.87;96608.97;30001;982;1881;-66
2022/08/26 01:25:47;;;;;;;;;;;;;;;19.43;66.63;96605.06;30001;982;1885;-66
2022/08/26 01:26:24;;;;;;;;;;;;;;;19.44;66.65;96608.63;30001;982;1859;-67
2022/08/26 01:27:00;;;;;;;;;;;;;;;19.43;66.64;96607.81;30001;982;1881;-66
2022/08/26 01:27:32;;;;;;;;;;;;;;;19.43;66.42;96610.56;30001;982;1881;-65
2022/08/26 01:28:05;;;;;;;;;;;;;;;19.45;66.47;96609.41;30001;983;1885;-66
2022/08/26 01:28:37;;;;;;;;;;;;;;;19.46;66.32;96611.03;30001;983;1880;-66
2022/08/26 01:29:12;;;;;;;;;;;;;;;19.45;66.28;96606.66;30001;983;1885;-67
2022/08/26 01:29:44;;;;;;;;;;;;;;;19.48;66.53;96603.22;30001;983;1881;-67
2022/08/26 01:30:15;;;;;;;;;;;;;;;19.48;66.42;96601.25;30002;983;1885;-65
2022/08/26 01:30:47;;;;;;;;;;;;;;;19.52;66.20;96604.13;30002;983;1881;-65
2022/08/26 01:31:21;;;;;;;;;;;;;;;19.52;66.12;96606.88;30002;983;1885;-64
2022/08/26 01:31:56;;;;;;;;;;;;;;;19.54;66.12;96601.81;30002;983;1859;-66
2022/08/26 01:32:31;;;;;;;;;;;;;;;19.54;65.90;96604.56;30002;982;1859;-66
2022/08/26 01:33:03;;;;;;;;;;;;;;;19.54;65.75;96599.06;30002;982;1881;-66
2022/08/26 01:33:40;;;;;;;;;;;;;;;19.52;65.82;96602.16;30002;982;1885;-64
2022/08/26 01:34:22;;;;;;;;;;;;;;;19.54;66.00;96605.38;30002;982;1881;-67
2022/08/26 01:34:53;;;;;;;;;;;;;;;19.55;65.85;96595.94;30002;983;1863;-55
2022/08/26 01:35:24;;;;;;;;;;;;;;;19.56;65.49;96594.00;30002;983;1876;-55
2022/08/26 01:35:55;;;;;;;;;;;;;;;19.54;65.44;96594.34;30002;983;1885;-66
2022/08/26 01:36:26;;;;;;;;;;;;;;;19.56;65.49;96591.25;30002;983;1880;-55
2022/08/26 01:37:09;;;;;;;;;;;;;;;19.55;65.51;96598.69;30002;983;1885;-66
2022/08/26 01:37:40;;;;;;;;;;;;;;;19.55;65.47;96595.16;30002;983;1859;-56
2022/08/26 01:38:11;;;;;;;;;;;;;;;19.54;65.65;96599.06;30002;983;1881;-66
2022/08/26 01:38:45;;;;;;;;;;;;;;;19.53;65.16;96597.47;30002;983;1881;-67
2022/08/26 01:39:17;;;;;;;;;;;;;;;19.52;65.28;96593.13;30002;983;1885;-55
2022/08/26 01:39:50;;;;;;;;;;;;;;;19.52;65.14;96601.37;30002;982;1881;-66
2022/08/26 01:40:24;;;;;;;;;;;;;;;19.48;66.21;96593.00;30002;982;1885;-66
2022/08/26 01:40:55;;;;;;;;;;;;;;;19.47;65.51;96598.84;30002;982;1881;-66
2022/08/26 01:41:26;;;;;;;;;;;;;;;19.45;65.76;96601.16;30002;982;1886;-66
2022/08/26 01:42:00;;;;;;;;;;;;;;;19.43;65.84;96596.81;30002;982;1859;-65
2022/08/26 01:42:33;;;;;;;;;;;;;;;19.43;66.06;96596.81;30002;983;1880;-67
2022/08/26 01:43:06;;;;;;;;;;;;;;;19.42;65.93;96591.66;30002;983;1859;-66
2022/08/26 01:43:38;;;;;;;;;;;;;;;19.42;65.82;96600.72;30002;983;1880;-67
2022/08/26 01:44:13;;;;;;;;;;;;;;;19.40;66.50;96592.03;30002;965;1899;-67
2022/08/26 01:44:50;;;;;;;;;;;;;;;19.38;66.56;96590.81;30002;983;1885;-66
2022/08/26 01:45:27;;;;;;;;;;;;;;;19.35;66.10;96597.81;30002;983;1881;-67
2022/08/26 01:45:59;;;;;;;;;;;;;;;19.34;66.34;96601.72;30002;983;1885;-66
2022/08/26 01:46:31;;;;;;;;;;;;;;;19.32;66.06;96587.53;30002;983;1881;-67
2022/08/26 01:47:02;;;;;;;;;;;;;;;19.32;66.06;96593.03;30002;983;1885;-67
2022/08/26 01:47:34;;;;;;;;;;;;;;;19.31;66.78;96599.69;30002;982;1881;-66
2022/08/26 01:48:07;;;;;;;;;;;;;;;19.30;66.57;96598.09;30002;982;1864;-67
2022/08/26 01:48:40;;;;;;;;;;;;;;;19.31;66.15;96596.94;30002;982;1877;-65
2022/08/26 01:49:12;;;;;;;;;;;;;;;19.31;66.08;96607.16;30002;982;1886;-66
2022/08/26 01:49:44;;;;;;;;;;;;;;;19.32;66.38;96592.22;30002;983;1880;-67
2022/08/26 01:50:17;;;;;;;;;;;;;;;19.32;66.29;96593.03;30002;983;1885;-66
2022/08/26 01:50:49;;;;;;;;;;;;;;;19.32;66.01;96593.03;30002;983;1880;-67
2022/08/26 01:51:21;;;;;;;;;;;;;;;19.33;66.19;96586.37;30002;983;1885;-55
2022/08/26 01:51:54;;;;;;;;;;;;;;;19.33;65.79;96591.88;30002;983;1881;-67
2022/08/26 01:52:26;;;;;;;;;;;;;;;19.33;65.71;96593.84;30002;983;1885;-65
2022/08/26 01:53:00;;;;;;;;;;;;;;;19.33;65.95;96593.84;30002;983;1859;-67
2022/08/26 01:53:31;;;;;;;;;;;;;;;19.33;65.75;96594.63;30002;983;1881;-66
2022/08/26 01:54:03;;;;;;;;;;;;;;;19.33;65.63;96599.34;30002;983;1881;-56
2022/08/26 01:54:34;;;;;;;;;;;;;;;19.32;65.91;96593.03;30002;983;1885;-66
2022/08/26 01:55:06;;;;;;;;;;;;;;;19.33;65.53;96605.62;30002;982;1881;-67
2022/08/26 01:55:38;;;;;;;;;;;;;;;19.33;65.90;96594.63;30002;982;1886;-69
2022/08/26 01:56:10;;;;;;;;;;;;;;;19.32;65.49;96593.03;30002;982;1881;-67
2022/08/26 01:56:41;;;;;;;;;;;;;;;19.31;65.80;96596.94;30002;982;1885;-67
2022/08/26 01:57:13;;;;;;;;;;;;;;;19.33;65.78;96600.13;30002;983;1858;-65
2022/08/26 01:57:46;;;;;;;;;;;;;;;19.32;65.80;96593.03;30002;983;1880;-66
2022/08/26 01:58:20;;;;;;;;;;;;;;;19.32;65.37;96598.53;30002;983;1881;-65
2022/08/26 01:58:53;;;;;;;;;;;;;;;19.31;65.41;96596.94;30002;983;1885;-67
2022/08/26 01:59:25;;;;;;;;;;;;;;;19.32;65.37;96604.03;30002;983;1880;-66
2022/08/26 01:59:58;;;;;;;;;;;;;;;19.31;65.59;96596.94;30002;983;1885;-65
2022/08/26 02:00:29;;;;;;;;;;;;;;;19.30;65.43;96595.34;30002;983;1881;-66
2022/08/26 02:01:00;;;;;;;;;;;;;;;19.30;65.57;96602.78;30002;983;1885;-67
2022/08/26 02:01:31;;;;;;;;;;;;;;;19.29;65.53;96602.00;30002;983;1881;-66
2022/08/26 02:02:02;;;;;;;;;;;;;;;19.28;65.83;96597.66;30002;983;1885;-56
2022/08/26 02:02:34;;;;;;;;;;;;;;;19.27;65.96;96590.56;30002;982;1859;-66
2022/08/26 02:03:21;;;;;;;;;;;;;;;19.28;65.83;96603.16;30002;982;1859;-65
2022/08/26 02:04:02;;;;;;;;;;;;;;;19.28;65.95;96600.41;30002;982;1881;-67
2022/08/26 02:04:35;;;;;;;;;;;;;;;19.28;66.12;96602.34;30002;982;1886;-67
2022/08/26 02:05:09;;;;;;;;;;;;;;;19.29;65.75;96602.00;30002;983;1880;-65
2022/08/26 02:05:41;;;;;;;;;;;;;;;19.29;65.69;96603.94;30002;983;1813;-66
2022/08/26 02:06:11;;;;;;;;;;;;;;;19.29;65.57;96606.69;30002;983;1881;-65
2022/08/26 02:06:43;;;;;;;;;;;;;;;19.28;65.57;96603.16;30002;983;1885;-66
2022/08/26 02:07:16;;;;;;;;;;;;;;;19.30;65.49;96598.09;30002;983;1881;-65
2022/08/26 02:07:49;;;;;;;;;;;;;;;19.31;65.71;96602.44;30002;983;1863;-67
2022/08/26 02:08:34;;;;;;;;;;;;;;;19.32;65.35;96598.53;30002;983;1876;-67
2022/08/26 02:09:06;;;;;;;;;;;;;;;19.35;65.62;96597.81;30002;982;1885;-65
2022/08/26 02:09:38;;;;;;;;;;;;;;;19.38;65.19;96591.63;30002;982;1881;-65
2022/08/26 02:10:09;;;;;;;;;;;;;;;19.39;65.20;96595.97;30002;982;1837;-66
2022/08/26 02:10:41;;;;;;;;;;;;;;;19.41;65.44;96604.63;30002;982;1881;-55
2022/08/26 02:11:13;;;;;;;;;;;;;;;19.41;65.31;96598.31;30002;982;1885;-66
2022/08/26 02:11:44;;;;;;;;;;;;;;;19.43;65.10;96599.56;30002;982;1881;-66
2022/08/26 02:12:16;;;;;;;;;;;;;;;19.45;65.30;96595.66;30002;983;1885;-67
2022/08/26 02:12:47;;;;;;;;;;;;;;;19.46;65.04;96594.50;30002;983;1858;-55
2022/08/26 02:13:18;;;;;;;;;;;;;;;19.47;65.32;96598.84;30002;983;1880;-66
2022/08/26 02:13:53;;;;;;;;;;;;;;;19.47;65.56;96607.91;30002;983;1859;-67
2022/08/26 02:14:27;;;;;;;;;;;;;;;19.47;65.45;96601.59;30002;983;1880;-56
2022/08/26 02:15:00;;;;;;;;;;;;;;;19.46;65.25;96602.75;30002;983;1881;-66
2022/08/26 02:15:33;;;;;;;;;;;;;;;19.45;65.35;96603.91;30002;983;1885;-65
2022/08/26 02:16:05;;;;;;;;;;;;;;;19.45;65.58;96606.66;30002;983;1881;-66
2022/08/26 02:16:38;;;;;;;;;;;;;;;19.43;65.25;96605.06;30002;982;1885;-66
2022/08/26 02:17:09;;;;;;;;;;;;;;;19.43;65.28;96605.06;30002;982;1881;-66
2022/08/26 02:17:42;;;;;;;;;;;;;;;19.45;65.20;96596.47;30002;982;1885;-67
2022/08/26 02:18:13;;;;;;;;;;;;;;;19.46;65.28;96603.56;30002;982;1881;-56
2022/08/26 02:18:46;;;;;;;;;;;;;;;19.47;65.70;96593.34;30002;982;1886;-65
2022/08/26 02:19:20;;;;;;;;;;;;;;;19.47;65.56;96598.84;30002;982;1859;-66
2022/08/26 02:19:51;;;;;;;;;;;;;;;19.47;65.70;96598.84;30002;983;1880;-66
2022/08/26 02:20:22;;;;;;;;;;;;;;;19.47;65.37;96605.16;30002;983;1880;-66
2022/08/26 02:20:55;;;;;;;;;;;;;;;19.52;65.76;96601.37;30002;983;1885;-57
2022/08/26 02:21:26;;;;;;;;;;;;;;;19.54;65.57;96601.81;30002;983;1880;-67
2022/08/26 02:22:00;;;;;;;;;;;;;;;19.56;65.60;96602.25;30001;983;1885;-66
2022/08/26 02:22:31;;;;;;;;;;;;;;;19.55;65.16;96601.47;30001;983;1881;-67
2022/08/26 02:23:04;;;;;;;;;;;;;;;19.55;65.40;96603.41;30001;983;1885;-65
2022/08/26 02:23:36;;;;;;;;;;;;;;;19.54;65.05;96607.31;30001;983;1881;-65
2022/08/26 02:24:12;;;;;;;;;;;;;;;19.54;65.28;96604.56;30001;982;1885;-67
2022/08/26 02:24:48;;;;;;;;;;;;;;;19.54;65.37;96612.81;30001;982;1859;-66
2022/08/26 02:25:26;;;;;;;;;;;;;;;19.53;65.39;96608.47;30002;982;1801;-65
2022/08/26 02:26:16;;;;;;;;;;;;;;;19.51;65.44;96602.53;30001;982;1859;-67
2022/08/26 02:26:48;;;;;;;;;;;;;;;19.52;65.38;96606.88;30002;982;1877;-66
2022/08/26 02:27:24;;;;;;;;;;;;;;;19.52;65.17;96606.88;30001;982;1881;-66
2022/08/26 02:27:55;;;;;;;;;;;;;;;19.52;65.07;96604.91;30001;983;1863;-67
2022/08/26 02:28:28;;;;;;;;;;;;;;;19.52;65.49;96618.69;30001;983;1854;-65
2022/08/26 02:29:09;;;;;;;;;;;;;;;19.53;65.39;96608.47;30001;983;1885;-58
2022/08/26 02:29:42;;;;;;;;;;;;;;;19.53;65.42;96609.28;30001;983;1881;-66
2022/08/26 02:30:15;;;;;;;;;;;;;;;19.54;65.19;96604.56;30001;983;1885;-65
2022/08/26 02:30:46;;;;;;;;;;;;;;;19.53;65.31;96603.75;30001;983;1859;-66
2022/08/26 02:31:17;;;;;;;;;;;;;;;19.53;65.20;96609.28;30001;983;1881;-66
2022/08/26 02:31:49;;;;;;;;;;;;;;;19.54;65.37;96610.06;30001;982;1881;-65
2022/08/26 02:32:19;;;;;;;;;;;;;;;19.53;65.45;96605.72;30001;982;1885;-67
2022/08/26 02:32:51;;;;;;;;;;;;;;;19.54;65.36;96604.56;30001;982;1881;-66
2022/08/26 02:33:22;;;;;;;;;;;;;;;19.53;65.21;96602.97;30001;982;1864;-65
2022/08/26 02:33:53;;;;;;;;;;;;;;;19.54;65.15;96604.56;30001;984;1877;-64
2022/08/26 02:34:31;;;;;;;;;;;;;;;19.53;65.57;96602.97;30001;982;1886;-56
2022/08/26 02:35:03;;;;;;;;;;;;;;;19.53;65.42;96608.47;30001;983;1880;-67
2022/08/26 02:35:35;;;;;;;;;;;;;;;19.52;65.75;96598.62;30001;983;1885;-66
2022/08/26 02:36:06;;;;;;;;;;;;;;;19.53;65.80;96601.00;30001;983;1881;-66
2022/08/26 02:36:38;;;;;;;;;;;;;;;19.54;65.64;96599.06;30001;983;1885;-66
2022/08/26 02:37:09;;;;;;;;;;;;;;;19.53;65.45;96600.22;30001;983;1880;-66
2022/08/26 02:37:41;;;;;;;;;;;;;;;19.53;65.51;96600.22;30001;983;1863;-66
2022/08/26 02:38:12;;;;;;;;;;;;;;;19.52;65.42;96599.41;30001;983;1876;-67
2022/08/26 02:38:42;;;;;;;;;;;;;;;19.53;65.75;96600.22;30001;983;1885;-56
2022/08/26 02:39:15;;;;;;;;;;;;;;;19.51;65.55;96605.28;30001;982;1881;-67
2022/08/26 02:39:46;;;;;;;;;;;;;;;19.49;65.86;96596.53;30001;982;1863;-68
2022/08/26 02:40:20;;;;;;;;;;;;;;;19.48;65.67;96600.47;30001;986;1867;-66
2022/08/26 02:40:51;;;;;;;;;;;;;;;19.46;66.02;96600.00;30001;982;1885;-66
2022/08/26 02:41:22;;;;;;;;;;;;;;;19.44;65.71;96600.38;30001;982;1881;-66
2022/08/26 02:41:53;;;;;;;;;;;;;;;19.42;66.01;96594.41;30001;983;1885;-67
2022/08/26 02:42:23;;;;;;;;;;;;;;;19.42;66.00;96597.16;30001;983;1880;-66
2022/08/26 02:42:56;;;;;;;;;;;;;;;19.41;66.11;96601.87;30001;983;1885;-66
2022/08/26 02:43:27;;;;;;;;;;;;;;;19.41;65.76;96595.56;30001;983;1880;-65
2022/08/26 02:43:58;;;;;;;;;;;;;;;19.40;66.11;96596.75;30001;983;1885;-65
2022/08/26 02:44:29;;;;;;;;;;;;;;;19.39;65.78;96600.66;30001;983;1881;-67
2022/08/26 02:45:00;;;;;;;;;;;;;;;19.37;65.71;96594.72;30001;983;1863;-66
2022/08/26 02:45:31;;;;;;;;;;;;;;;19.36;65.83;96599.41;30001;983;1876;-64
2022/08/26 02:46:03;;;;;;;;;;;;;;;19.36;66.07;96593.13;30001;983;1885;-67
2022/08/26 02:46:34;;;;;;;;;;;;;;;19.35;65.82;96589.56;30001;983;1881;-66
2022/08/26 02:47:05;;;;;;;;;;;;;;;19.35;65.98;96595.06;30001;982;1885;-67
2022/08/26 02:47:37;;;;;;;;;;;;;;;19.33;65.87;96594.63;30001;962;1865;-65
2022/08/26 02:48:13;;;;;;;;;;;;;;;19.35;65.93;96599.78;30001;982;1864;-56
2022/08/26 02:48:44;;;;;;;;;;;;;;;19.34;65.87;96606.44;30001;982;1877;-67
2022/08/26 02:49:15;;;;;;;;;;;;;;;19.32;65.84;96593.03;30001;983;1885;-56
2022/08/26 02:49:46;;;;;;;;;;;;;;;19.33;65.84;96604.84;30001;983;1880;-66
2022/08/26 02:50:17;;;;;;;;;;;;;;;19.30;65.88;96595.34;30001;983;1885;-66
2022/08/26 02:50:48;;;;;;;;;;;;;;;19.31;65.88;96598.88;30001;983;1881;-67
2022/08/26 02:51:20;;;;;;;;;;;;;;;19.29;66.11;96604.75;30001;983;1885;-67
2022/08/26 02:51:51;;;;;;;;;;;;;;;19.28;66.00;96603.16;30001;983;1881;-57
2022/08/26 02:52:22;;;;;;;;;;;;;;;19.26;66.14;96594.44;30001;983;1863;-65
2022/08/26 02:52:56;;;;;;;;;;;;;;;19.27;66.07;96601.56;30001;983;1876;-68
2022/08/26 02:53:28;;;;;;;;;;;;;;;19.26;66.31;96594.44;30001;983;1885;-66
2022/08/26 02:53:58;;;;;;;;;;;;;;;19.27;65.99;96604.31;30001;983;1881;-66
2022/08/26 02:54:29;;;;;;;;;;;;;;;19.25;66.22;96595.59;30001;982;1885;-66
2022/08/26 02:55:00;;;;;;;;;;;;;;;19.26;65.98;96599.97;30001;982;1881;-66
2022/08/26 02:55:31;;;;;;;;;;;;;;;19.26;66.06;96597.22;30001;982;1864;-65